LFPG 231700Z 06010KT CAVOK 13/04 Q1032 NOSIG

ElémentsDécodage
LFPG Station météo située sur l'aérodrome de PARIS Charles-de-Gaulle
231700Z émis le 23 du mois à 17h00 UTC
06010KT vent du 060°, 10 noeuds
CAVOK Ceiling And Visibility OK
- Visibilité de 10 Km ou plus
- Pas de nuage au-dessous de 1500m ou au-dessous de l'altitude minimale du secteur la plus élevée (si>1500m) et absence de CB
- pas de temps présent significatif
13/04 température 13°C, point de rosée 04°C
 soit une humidité relative de 54%
Q1032 la pression au niveau de la mer (QNH) est de 1032 hPa
NOSIG Pas de changement significatif prévu au cours des deux heures suivant l'heure de l'observation